Time;durP1;ratioP1;P1;durP2;ratioP2;P2;SDS_P1;SDS_P2;PMS_P1;PMS_P2;Temp;Humidity;BMP_temperature;BMP_pressure;BME280_temperature;BME280_humidity;BME280_pressure;Samples;Min_cycle;Max_cycle;Signal;HPM_P1;HPM_P2
2021/07/04 16:13:21;;;;;;;14.73;10.32;;;;;;;18.98;78.36;99565.69;3643621;39;20657;-70
2021/07/04 16:15:48;;;;;;;13.25;9.18;;;;;;;19.44;77.90;99571.44;3644142;39;20075;-70
2021/07/04 16:18:16;;;;;;;11.70;8.30;;;;;;;19.74;77.32;99567.97;3633827;39;20118;-68
2021/07/04 16:20:43;;;;;;;13.32;8.13;;;;;;;19.93;76.36;99567.22;3644300;39;20038;-70
2021/07/04 16:23:10;;;;;;;12.48;7.00;;;;;;;19.88;76.96;99563.28;3643973;39;20061;-68
2021/07/04 16:25:38;;;;;;;10.68;7.90;;;;;;;20.01;76.58;99569.22;3641604;39;20039;-67
2021/07/04 16:28:05;;;;;;;10.05;7.32;;;;;;;20.00;76.48;99575.53;3636264;39;20075;-68
2021/07/04 16:30:34;;;;;;;16.23;9.57;;;;;;;19.97;76.85;99568.63;3639412;39;20379;-68
2021/07/04 16:33:01;;;;;;;14.70;9.40;;;;;;;19.99;77.18;99577.34;3639109;39;20038;-68
2021/07/04 16:35:29;;;;;;;17.08;11.73;;;;;;;20.19;76.92;99572.88;3642185;39;20111;-69
2021/07/04 16:37:56;;;;;;;20.20;11.85;;;;;;;20.43;76.77;99577.06;3633960;39;20422;-68
2021/07/04 16:40:25;;;;;;;11.70;8.23;;;;;;;20.53;76.08;99575.22;3640487;39;20420;-68
2021/07/04 16:42:54;;;;;;;13.35;9.32;;;;;;;20.56;76.61;99575.78;3633827;39;20038;-68
2021/07/04 16:45:24;;;;;;;16.77;10.82;;;;;;;20.42;76.65;99575.38;3633158;39;20078;-65
2021/07/04 16:47:53;;;;;;;20.30;11.10;;;;;;;20.45;77.24;99572.44;3634203;39;20385;-66
2021/07/04 16:50:22;;;;;;;26.23;13.70;;;;;;;20.43;77.59;99577.06;3633418;39;20126;-70
2021/07/04 16:52:53;;;;;;;21.33;11.20;;;;;;;20.66;77.16;99570.50;3634042;39;20051;-70
2021/07/04 16:55:21;;;;;;;17.15;10.98;;;;;;;20.76;76.95;99566.00;3634071;39;20047;-69
2021/07/04 16:57:50;;;;;;;16.70;10.98;;;;;;;20.81;76.87;99562.91;3634711;39;20056;-68
2021/07/04 17:00:19;;;;;;;18.48;10.77;;;;;;;20.89;77.05;99561.22;3635188;39;20039;-68
2021/07/04 17:02:47;;;;;;;12.75;9.63;;;;;;;20.94;76.97;99569.63;3638663;39;20376;-70
2021/07/04 17:05:15;;;;;;;10.32;7.53;;;;;;;20.89;76.52;99571.06;3640320;39;20180;-69
2021/07/04 17:07:43;;;;;;;11.00;8.30;;;;;;;20.81;76.51;99569.06;3639406;39;20042;-67
2021/07/04 17:10:11;;;;;;;12.30;8.70;;;;;;;20.81;76.36;99573.56;3628316;39;20038;-68
2021/07/04 17:12:39;;;;;;;13.32;9.55;;;;;;;20.88;76.66;99570.22;3632500;39;20054;-68
2021/07/04 17:15:07;;;;;;;12.80;8.18;;;;;;;20.89;76.15;99568.38;3634064;39;20118;-69
2021/07/04 17:17:35;;;;;;;10.75;8.15;;;;;;;20.98;76.37;99567.53;3623523;39;20039;-69
2021/07/04 17:20:05;;;;;;;13.93;9.32;;;;;;;21.07;76.52;99574.69;3623786;39;20813;-69
2021/07/04 17:22:35;;;;;;;15.13;10.73;;;;;;;21.12;76.60;99574.25;3626049;39;20377;-68
2021/07/04 17:25:02;;;;;;;14.13;9.55;;;;;;;21.16;76.13;99575.66;3611297;39;20214;-64
2021/07/04 17:27:30;;;;;;;15.95;10.75;;;;;;;21.31;76.45;99571.59;3609150;39;20059;-65
2021/07/04 17:29:58;;;;;;;13.52;9.82;;;;;;;21.44;75.62;99572.09;3620120;39;20118;-64
2021/07/04 17:32:26;;;;;;;13.27;10.80;;;;;;;21.54;75.93;99569.44;3621292;39;20047;-66
2021/07/04 17:34:53;;;;;;;14.45;10.82;;;;;;;21.58;76.00;99562.81;3622384;39;20047;-64
2021/07/04 17:37:21;;;;;;;12.48;10.07;;;;;;;21.66;75.14;99560.28;3622808;39;20046;-66
2021/07/04 17:39:49;;;;;;;16.45;11.95;;;;;;;21.68;75.64;99552.13;3624374;39;20045;-68
2021/07/04 17:42:17;;;;;;;18.55;13.00;;;;;;;21.73;75.75;99556.03;3620541;39;20050;-70
2021/07/04 17:44:45;;;;;;;21.17;14.35;;;;;;;21.83;75.26;99550.63;3626995;39;20218;-66
2021/07/04 17:47:12;;;;;;;17.92;11.55;;;;;;;21.89;75.27;99555.41;3624915;39;20091;-67
2021/07/04 17:49:40;;;;;;;15.05;10.73;;;;;;;21.96;75.60;99555.63;3624796;39;20059;-65
2021/07/04 17:52:08;;;;;;;13.88;9.50;;;;;;;22.03;75.50;99557.56;3621440;39;20043;-68
2021/07/04 17:54:37;;;;;;;15.45;11.20;;;;;;;22.07;74.94;99553.66;3609323;39;20056;-65
2021/07/04 17:57:11;;;;;;;13.10;8.93;;;;;;;22.12;74.18;99550.53;3619605;39;20265;-65
2021/07/04 17:59:39;;;;;;;11.32;7.78;;;;;;;22.14;74.03;99548.56;3621478;39;20290;-64
2021/07/04 18:02:06;;;;;;;15.00;10.13;;;;;;;22.18;74.59;99544.59;3619494;39;20057;-67
2021/07/04 18:04:33;;;;;;;13.38;9.38;;;;;;;22.15;74.23;99540.38;3609660;39;20373;-65
2021/07/04 18:07:01;;;;;;;10.38;7.82;;;;;;;22.18;73.83;99545.44;3608507;39;20104;-66
2021/07/04 18:09:30;;;;;;;11.10;8.20;;;;;;;22.23;73.68;99539.63;3621143;39;20039;-67
2021/07/04 18:12:00;;;;;;;16.37;10.40;;;;;;;22.20;73.51;99543.44;3606456;39;20062;-60
2021/07/04 18:14:29;;;;;;;12.05;9.23;;;;;;;22.19;73.80;99552.44;3612709;39;20039;-59
2021/07/04 18:16:56;;;;;;;14.38;10.98;;;;;;;22.20;73.94;99553.28;3608057;39;20059;-60
2021/07/04 18:19:24;;;;;;;18.45;12.13;;;;;;;22.16;73.71;99557.25;3609349;39;20042;-59
2021/07/04 18:21:51;;;;;;;17.73;12.50;;;;;;;22.14;73.60;99551.22;3608153;39;20047;-60
2021/07/04 18:24:19;;;;;;;20.33;13.82;;;;;;;22.08;73.63;99550.00;3609685;39;20315;-55
2021/07/04 18:26:47;;;;;;;19.48;12.27;;;;;;;22.03;73.88;99546.88;3608033;39;20051;-58
2021/07/04 18:29:16;;;;;;;13.93;10.13;;;;;;;21.98;73.69;99554.50;3607941;39;20043;-60
2021/07/04 18:31:46;;;;;;;17.20;11.27;;;;;;;21.97;74.12;99550.16;3610716;39;20051;-59
2021/07/04 18:34:14;;;;;;;16.08;11.77;;;;;;;21.96;74.16;99545.81;3607673;39;20035;-61
2021/07/04 18:36:41;;;;;;;21.13;14.15;;;;;;;21.98;74.24;99556.31;3606765;39;20417;-57
2021/07/04 18:39:09;;;;;;;23.35;15.57;;;;;;;21.94;74.68;99550.44;3608567;39;20269;-58
2021/07/04 18:41:37;;;;;;;18.40;13.43;;;;;;;21.95;74.80;99559.28;3609478;39;20046;-60
2021/07/04 18:44:07;;;;;;;21.30;14.77;;;;;;;21.89;74.90;99564.25;3607691;39;20040;-58
2021/07/04 18:46:35;;;;;;;18.38;12.73;;;;;;;21.82;74.86;99551.63;3611977;39;20051;-58
2021/07/04 18:49:07;;;;;;;14.95;10.70;;;;;;;21.66;74.79;99554.94;3609433;39;20421;-59
2021/07/04 18:51:37;;;;;;;16.90;11.95;;;;;;;21.55;75.39;99553.28;3611904;39;20043;-58
2021/07/04 18:54:06;;;;;;;13.95;10.13;;;;;;;21.51;74.87;99551.88;3608984;39;20063;-61
2021/07/04 18:56:35;;;;;;;15.98;11.15;;;;;;;21.48;75.07;99565.53;3609908;39;20043;-60
2021/07/04 18:59:03;;;;;;;14.37;11.53;;;;;;;21.46;75.01;99570.16;3612428;39;20039;-58
2021/07/04 19:01:31;;;;;;;19.75;14.25;;;;;;;21.40;75.59;99565.38;3613909;39;20100;-58
2021/07/04 19:04:01;;;;;;;20.90;14.05;;;;;;;21.39;75.75;99573.53;3613349;39;20424;-59
2021/07/04 19:06:32;;;;;;;24.75;15.38;;;;;;;21.34;75.44;99565.97;3606958;39;20101;-67
2021/07/04 19:09:00;;;;;;;25.50;15.10;;;;;;;21.35;75.55;99550.81;3609124;39;20043;-64
2021/07/04 19:11:29;;;;;;;22.67;14.88;;;;;;;21.28;75.68;99561.22;3612493;39;20066;-65
2021/07/04 19:13:57;;;;;;;21.85;14.35;;;;;;;21.23;75.80;99561.59;3617691;39;20454;-64
2021/07/04 19:16:25;;;;;;;24.40;16.00;;;;;;;21.20;76.43;99566.38;3619160;39;20039;-68
2021/07/04 19:18:53;;;;;;;32.22;18.40;;;;;;;21.18;76.05;99565.69;3620370;39;20351;-68
2021/07/04 19:21:24;;;;;;;22.90;15.43;;;;;;;21.20;76.29;99563.72;3617943;39;20610;-64
2021/07/04 19:23:53;;;;;;;23.95;14.93;;;;;;;21.22;76.01;99569.72;3619871;39;20127;-63
2021/07/04 19:26:21;;;;;;;24.33;15.05;;;;;;;21.19;75.96;99567.34;3609162;39;20291;-65
2021/07/04 19:28:49;;;;;;;26.05;15.50;;;;;;;21.22;76.17;99570.56;3618080;39;20128;-68
2021/07/04 19:31:17;;;;;;;31.45;16.95;;;;;;;21.27;75.99;99563.03;3618277;39;20054;-61
2021/07/04 19:33:45;;;;;;;23.15;15.18;;;;;;;21.32;75.95;99567.94;3616986;39;20112;-62
2021/07/04 19:36:13;;;;;;;27.20;16.70;;;;;;;21.34;76.14;99565.97;3619048;39;20395;-61
2021/07/04 19:38:40;;;;;;;29.45;17.42;;;;;;;21.27;76.25;99568.38;3617817;39;20092;-61
2021/07/04 19:41:09;;;;;;;32.33;17.73;;;;;;;21.24;76.36;99566.00;3619256;39;20063;-58
2021/07/04 19:43:39;;;;;;;31.58;18.70;;;;;;;21.20;76.12;99571.72;3617016;39;20498;-61
2021/07/04 19:46:06;;;;;;;26.42;16.40;;;;;;;21.18;76.19;99571.00;3610093;39;20053;-63
2021/07/04 19:48:34;;;;;;;28.60;16.95;;;;;;;21.15;76.67;99558.81;3621608;39;20034;-58
2021/07/04 19:51:01;;;;;;;25.25;16.40;;;;;;;21.16;76.02;99567.66;3620627;39;20046;-60
2021/07/04 19:53:29;;;;;;;25.00;16.00;;;;;;;21.12;76.39;99559.09;3620394;39;20051;-61
2021/07/04 19:55:59;;;;;;;25.88;16.50;;;;;;;21.18;75.80;99557.69;3619104;39;20039;-60
2021/07/04 19:58:29;;;;;;;31.13;18.25;;;;;;;21.14;76.03;99550.97;3615332;39;20035;-60
2021/07/04 20:00:57;;;;;;;24.42;18.85;;;;;;;21.10;75.90;99546.91;3617582;39;20046;-68
2021/07/04 20:06:08;;;;;;;30.05;18.70;;;;;;;21.01;76.49;99538.75;3614591;39;20043;-59
2021/07/04 20:08:35;;;;;;;29.27;18.42;;;;;;;21.00;76.30;99545.09;3619590;39;20353;-67
2021/07/04 20:11:04;;;;;;;30.00;17.45;;;;;;;20.92;76.51;99528.97;3617386;39;20047;-67
2021/07/04 20:13:33;;;;;;;30.65;18.35;;;;;;;20.88;76.68;99527.59;3621372;39;20137;-65
2021/07/04 20:16:00;;;;;;;25.73;17.35;;;;;;;20.81;76.28;99526.44;3617182;39;20039;-68
2021/07/04 20:18:27;;;;;;;28.83;17.33;;;;;;;20.76;76.48;99531.38;3617161;39;20291;-71
2021/07/04 20:20:56;;;;;;;32.33;17.33;;;;;;;20.71;76.73;99530.97;3617874;39;20055;-68
2021/07/04 20:23:25;;;;;;;28.38;17.77;;;;;;;20.64;76.94;99535.16;3617550;39;20030;-69
2021/07/04 20:25:53;;;;;;;31.25;18.85;;;;;;;20.63;76.82;99536.16;3618176;39;20381;-67
2021/07/04 20:28:21;;;;;;;29.80;19.55;;;;;;;20.64;76.93;99529.84;3620121;39;20039;-67
2021/07/04 20:30:51;;;;;;;31.42;19.25;;;;;;;20.60;76.82;99531.09;3618504;39;20078;-68
2021/07/04 20:33:19;;;;;;;32.17;19.53;;;;;;;20.58;76.96;99535.72;3616894;39;20071;-67
2021/07/04 20:35:46;;;;;;;32.03;17.35;;;;;;;20.59;76.71;99524.06;3619228;39;20051;-68
2021/07/04 20:38:14;;;;;;;31.67;19.08;;;;;;;20.56;77.38;99524.34;3610073;39;20276;-61
2021/07/04 20:40:42;;;;;;;28.83;17.45;;;;;;;20.58;76.75;99531.22;3619656;39;20161;-61
2021/07/04 20:43:10;;;;;;;27.25;17.23;;;;;;;20.60;76.79;99528.41;3623709;39;20046;-60
2021/07/04 20:45:37;;;;;;;31.63;17.83;;;;;;;20.54;76.88;99518.34;3619969;39;20039;-59
2021/07/04 20:48:06;;;;;;;30.95;18.95;;;;;;;20.49;77.17;99525.91;3623393;39;20062;-61
2021/07/04 20:50:34;;;;;;;35.40;19.58;;;;;;;20.46;77.17;99527.03;3622573;39;20115;-61
2021/07/04 20:53:32;;;;;;;35.25;18.17;;;;;;;20.38;77.31;99525.00;3612520;39;20441;-62
2021/07/04 20:56:00;;;;;;;37.67;20.02;;;;;;;20.39;77.00;99526.69;3621755;39;20288;-59
2021/07/04 20:58:28;;;;;;;28.23;18.23;;;;;;;20.30;77.33;99532.84;3619171;39;20414;-60
2021/07/04 21:00:55;;;;;;;30.23;18.90;;;;;;;20.27;77.47;99533.13;3620167;39;20079;-59
2021/07/04 21:03:24;;;;;;;31.85;19.95;;;;;;;20.22;77.76;99540.69;3620511;39;20054;-61
2021/07/04 21:05:52;;;;;;;32.60;19.15;;;;;;;20.23;77.46;99542.38;3622633;39;20055;-60
2021/07/04 21:08:20;;;;;;;31.25;19.10;;;;;;;20.20;77.30;99547.13;3618489;39;20407;-61
2021/07/04 21:10:48;;;;;;;36.10;18.73;;;;;;;20.18;77.70;99538.44;3619095;39;20334;-60
2021/07/04 21:13:15;;;;;;;34.33;20.48;;;;;;;20.15;77.32;99534.22;3619586;39;20059;-62
2021/07/04 21:15:43;;;;;;;32.67;19.55;;;;;;;20.12;77.47;99534.50;3620703;39;20043;-60
2021/07/04 21:18:10;;;;;;;31.50;19.70;;;;;;;20.14;77.12;99537.88;3621660;39;20277;-60
2021/07/04 21:20:39;;;;;;;31.98;21.02;;;;;;;20.16;77.38;99538.56;3609215;39;20049;-60
2021/07/04 21:23:07;;;;;;;29.33;18.45;;;;;;;20.14;77.52;99532.53;3618773;39;20930;-61
2021/07/04 21:25:34;;;;;;;34.95;18.17;;;;;;;20.12;77.52;99533.66;3619701;39;20115;-60
2021/07/04 21:28:05;;;;;;;32.60;19.70;;;;;;;20.08;77.39;99527.78;3618994;39;20051;-60
2021/07/04 21:30:32;;;;;;;27.42;17.60;;;;;;;20.08;76.99;99533.94;3621817;39;20373;-60
2021/07/04 21:33:00;;;;;;;27.77;18.45;;;;;;;19.99;77.04;99531.25;3619346;39;20363;-59
2021/07/04 21:35:28;;;;;;;25.27;16.77;;;;;;;19.98;77.23;99543.69;3623704;39;20039;-60
2021/07/04 21:37:57;;;;;;;30.80;19.10;;;;;;;19.95;77.39;99532.50;3625431;39;20038;-60
2021/07/04 21:40:26;;;;;;;37.10;19.33;;;;;;;19.94;77.20;99536.97;3619061;39;20045;-60
2021/07/04 21:42:54;;;;;;;30.30;18.63;;;;;;;19.91;77.57;99531.94;3619219;39;20050;-61
2021/07/04 21:45:21;;;;;;;24.73;17.00;;;;;;;19.97;77.13;99535.84;3610748;39;20091;-61
2021/07/04 21:47:51;;;;;;;28.02;17.75;;;;;;;20.01;76.98;99532.81;3618772;39;20135;-63
2021/07/04 21:50:21;;;;;;;28.33;16.42;;;;;;;20.04;76.82;99523.72;3622459;39;20042;-60
2021/07/04 21:52:49;;;;;;;29.02;17.42;;;;;;;19.99;77.22;99523.25;3619696;39;20039;-60
2021/07/04 21:55:20;;;;;;;29.40;16.45;;;;;;;19.94;77.07;99525.50;3618044;39;20158;-60
2021/07/04 21:57:48;;;;;;;31.58;18.35;;;;;;;19.97;77.51;99523.41;3617826;39;20335;-61
2021/07/04 22:00:19;;;;;;;30.73;17.92;;;;;;;19.98;76.85;99524.25;3618235;39;20039;-60
2021/07/04 22:02:47;;;;;;;29.10;17.00;;;;;;;19.97;77.32;99528.72;3618301;39;20096;-62
2021/07/04 22:05:15;;;;;;;28.33;16.10;;;;;;;19.98;77.21;99526.91;3620698;39;20054;-60
2021/07/04 22:07:44;;;;;;;25.70;16.27;;;;;;;20.00;76.91;99517.84;3621183;39;20047;-59
2021/07/04 22:10:13;;;;;;;27.65;16.13;;;;;;;20.01;76.77;99516.84;3621469;39;20047;-59
2021/07/04 22:12:42;;;;;;;22.15;15.65;;;;;;;20.01;76.86;99513.34;3618983;39;20421;-61
2021/07/04 22:15:12;;;;;;;23.67;14.90;;;;;;;19.96;77.09;99519.06;3622310;39;20393;-61
2021/07/04 22:17:40;;;;;;;30.33;17.23;;;;;;;19.95;76.50;99521.84;3620045;39;20049;-59
2021/07/04 22:20:09;;;;;;;26.80;16.52;;;;;;;19.95;76.85;99525.34;3618383;39;20046;-61
2021/07/04 22:22:44;;;;;;;32.50;19.42;;;;;;;19.92;76.87;99528.28;3618196;39;20036;-61
2021/07/04 22:25:13;;;;;;;34.08;19.65;;;;;;;19.90;77.06;99534.72;3618843;39;20374;-60
2021/07/04 22:27:43;;;;;;;28.45;17.65;;;;;;;19.87;76.99;99533.19;3610405;39;20042;-58
2021/07/04 22:30:12;;;;;;;33.60;18.60;;;;;;;19.89;76.78;99533.03;3618153;39;20059;-58
2021/07/04 22:32:40;;;;;;;27.00;18.17;;;;;;;19.85;76.83;99523.66;3618872;39;20050;-59
2021/07/04 22:35:10;;;;;;;30.27;18.40;;;;;;;19.79;76.75;99525.88;3622889;39;20051;-59
2021/07/04 22:37:43;;;;;;;34.67;18.80;;;;;;;19.79;77.07;99522.38;3619364;39;20035;-59
2021/07/04 22:40:15;;;;;;;28.30;17.65;;;;;;;19.79;76.97;99523.22;3624071;39;20039;-59
2021/07/04 22:42:44;;;;;;;29.80;18.33;;;;;;;19.75;76.95;99516.47;3619542;39;20423;-59
2021/07/04 22:45:13;;;;;;;30.80;17.85;;;;;;;19.72;76.94;99522.06;3620549;39;20465;-60
2021/07/04 22:47:42;;;;;;;29.45;19.20;;;;;;;19.70;76.64;99520.53;3620204;39;20070;-60
2021/07/04 22:50:14;;;;;;;28.48;18.80;;;;;;;19.69;76.91;99519.69;3619768;39;20285;-60
2021/07/04 22:52:42;;;;;;;25.80;18.73;;;;;;;19.72;76.93;99522.06;3621220;39;20043;-60
2021/07/04 22:55:12;;;;;;;33.10;19.58;;;;;;;19.69;76.66;99522.34;3618621;39;20043;-58
2021/07/04 22:57:43;;;;;;;32.13;18.88;;;;;;;19.64;77.11;99513.94;3621793;39;20047;-59
2021/07/04 23:00:13;;;;;;;;;;;;;;;19.68;77.15;99517.16;3623482;39;20050;-59
2021/07/04 23:02:40;;;;;;;31.25;18.42;;;;;;;19.70;76.77;99523.19;3621665;39;19988;-59
2021/07/04 23:05:08;;;;;;;33.10;18.77;;;;;;;19.63;76.61;99522.88;3623475;39;20039;-60
2021/07/04 23:07:36;;;;;;;32.47;18.50;;;;;;;19.58;76.90;99526.94;3610377;39;20039;-59
2021/07/04 23:10:07;;;;;;;30.73;18.40;;;;;;;19.56;76.95;99526.19;3618090;39;20151;-59
2021/07/04 23:12:34;;;;;;;30.80;19.52;;;;;;;19.54;76.88;99533.47;3620567;39;20054;-60
2021/07/04 23:15:02;;;;;;;31.17;18.30;;;;;;;19.48;76.65;99540.97;3620505;39;20039;-61
2021/07/04 23:17:34;;;;;;;33.13;18.60;;;;;;;19.49;76.35;99541.81;3623248;39;20057;-60
2021/07/04 23:20:05;;;;;;;33.97;19.42;;;;;;;19.46;76.69;99544.72;3619330;39;20412;-59
2021/07/04 23:22:33;;;;;;;25.90;17.80;;;;;;;19.43;76.56;99537.03;3619558;39;20075;-60
2021/07/04 23:25:02;;;;;;;28.27;16.90;;;;;;;19.42;76.21;99533.53;3620127;39;20054;-59
2021/07/04 23:27:30;;;;;;;30.67;18.70;;;;;;;19.39;76.30;99538.28;3621510;39;20123;-59
2021/07/04 23:29:58;;;;;;;33.35;19.25;;;;;;;19.36;76.17;99538.50;3625572;39;20050;-61
2021/07/04 23:32:25;;;;;;;27.20;17.38;;;;;;;19.34;76.42;99543.13;3609990;39;20413;-62
2021/07/04 23:34:54;;;;;;;26.58;18.17;;;;;;;19.30;76.06;99542.53;3611484;39;20122;-60
2021/07/04 23:37:21;;;;;;;27.23;17.77;;;;;;;19.25;76.13;99544.75;3624174;39;20415;-60
2021/07/04 23:39:49;;;;;;;22.40;16.27;;;;;;;19.18;76.59;99544.44;3619145;39;20046;-61
2021/07/04 23:42:16;;;;;;;26.17;16.58;;;;;;;19.18;76.19;99536.47;3618865;39;20143;-59
2021/07/04 23:44:44;;;;;;;25.23;16.98;;;;;;;19.18;76.11;99549.75;3621910;39;20108;-59
2021/07/04 23:47:11;;;;;;;25.45;17.05;;;;;;;19.15;76.50;99543.84;3619158;39;20473;-60
2021/07/04 23:49:38;;;;;;;25.70;17.00;;;;;;;19.15;76.09;99542.03;3622059;39;20050;-65
2021/07/04 23:52:07;;;;;;;24.83;15.73;;;;;;;19.09;76.30;99549.69;3608949;39;20115;-65
2021/07/04 23:54:34;;;;;;;27.48;15.63;;;;;;;19.05;76.31;99545.59;3619448;39;20038;-65
2021/07/04 23:57:02;;;;;;;23.40;16.23;;;;;;;19.07;75.88;99536.53;3619796;39;20436;-64
2021/07/04 23:59:30;;;;;;;23.50;14.70;;;;;;;19.03;76.51;99551.06;3619874;39;20043;-64
